Time;durP1;ratioP1;P1;durP2;ratioP2;P2;SDS_P1;SDS_P2;PMS_P1;PMS_P2;Temp;Humidity;BMP_temperature;BMP_pressure;BME280_temperature;BME280_humidity;BME280_pressure;Samples;Min_cycle;Max_cycle;Signal;HPM_P1;HPM_P2
2023/03/09 00:00:53;;;;;;;3.00;2.33;;;;;;;15.47;61.65;96357.41;7002345;28;20614;-82
2023/03/09 00:04:15;;;;;;;2.87;2.20;;;;;;;15.50;61.85;96336.97;7002846;28;20190;-82
2023/03/09 00:07:37;;;;;;;4.60;2.53;;;;;;;15.50;61.57;96335.09;7001912;28;20219;-82
2023/03/09 00:11:00;;;;;;;3.53;2.20;;;;;;;15.67;61.09;96337.25;7002215;28;20222;-82
2023/03/09 00:14:22;;;;;;;4.37;2.40;;;;;;;15.73;60.88;96334.16;7001478;28;20243;-83
2023/03/09 00:17:44;;;;;;;3.97;2.77;;;;;;;15.40;61.45;96342.59;7001352;28;20319;-82
2023/03/09 00:21:06;;;;;;;2.57;2.27;;;;;;;15.45;61.41;96346.03;7001100;28;20237;-82
2023/03/09 00:24:28;;;;;;;3.20;2.60;;;;;;;14.84;62.90;96341.72;7002510;28;20287;-82
2023/03/09 00:27:52;;;;;;;2.40;1.97;;;;;;;15.08;62.86;96366.91;7001228;28;20870;-82
2023/03/09 00:31:14;;;;;;;2.10;2.00;;;;;;;15.02;63.21;96414.19;7001906;28;20232;-83
2023/03/09 00:34:35;;;;;;;3.07;2.07;;;;;;;14.82;63.14;96428.00;7004906;28;20210;-80
2023/03/09 00:37:57;;;;;;;2.33;1.50;;;;;;;14.80;61.52;96449.22;7001991;28;20267;-80
2023/03/09 00:41:18;;;;;;;3.00;1.60;;;;;;;14.67;62.34;96428.19;7004583;28;20301;-80
2023/03/09 00:44:41;;;;;;;3.90;1.70;;;;;;;14.65;62.48;96417.63;7005716;28;20308;-80
2023/03/09 00:48:03;;;;;;;1.93;1.80;;;;;;;15.00;62.40;96449.78;7005209;28;20337;-80
2023/03/09 00:51:25;;;;;;;2.07;1.60;;;;;;;14.89;62.88;96442.03;7008085;28;20266;-80
2023/03/09 00:54:46;;;;;;;1.50;1.40;;;;;;;15.52;60.10;96451.56;7010406;28;20674;-80
2023/03/09 00:58:08;;;;;;;2.07;1.83;;;;;;;15.03;61.45;96451.91;7010306;28;20240;-80
2023/03/09 01:01:31;;;;;;;2.87;1.87;;;;;;;15.11;62.19;96470.25;7009053;28;20228;-80
2023/03/09 01:04:52;;;;;;;1.53;1.40;;;;;;;15.23;60.93;96467.13;6985493;28;20295;-80
2023/03/09 01:08:14;;;;;;;1.53;1.40;;;;;;;14.49;61.36;96404.50;6982798;28;20689;-80
2023/03/09 01:11:36;;;;;;;1.90;1.40;;;;;;;15.12;59.51;96428.47;6983038;28;20317;-80
2023/03/09 01:14:58;;;;;;;3.17;1.63;;;;;;;14.81;59.51;96445.38;6982276;28;20278;-80
2023/03/09 01:18:20;;;;;;;2.20;1.27;;;;;;;15.09;59.53;96480.59;6983113;28;20372;-80
2023/03/09 01:21:42;;;;;;;1.20;1.20;;;;;;;14.72;60.41;96475.06;6984198;28;20238;-81
2023/03/09 01:25:04;;;;;;;1.10;1.10;;;;;;;14.49;60.69;96519.22;6989251;28;20252;-80
2023/03/09 01:28:25;;;;;;;0.90;0.90;;;;;;;14.81;59.01;96502.34;6991807;28;20219;-80
2023/03/09 01:31:47;;;;;;;1.20;1.20;;;;;;;14.50;58.47;96477.44;6984045;28;20769;-80
2023/03/09 01:35:10;;;;;;;1.70;1.00;;;;;;;14.88;57.26;96487.34;6984463;28;20385;-80
2023/03/09 01:38:31;;;;;;;1.10;0.90;;;;;;;14.60;57.46;96503.63;6983614;28;20304;-80
2023/03/09 01:41:53;;;;;;;1.10;1.00;;;;;;;14.54;55.79;96508.31;6984341;28;20258;-80
2023/03/09 01:45:52;;;;;;;0.90;0.87;;;;;;;14.59;55.04;96518.31;6984517;28;20228;-80
2023/03/09 01:49:24;;;;;;;0.90;0.90;;;;;;;14.43;55.53;96505.97;6984310;28;20436;-80
2023/03/09 01:52:49;;;;;;;1.00;1.00;;;;;;;14.52;55.82;96507.78;6985107;28;20203;-80
2023/03/09 01:56:11;;;;;;;0.80;0.80;;;;;;;14.11;56.92;96511.09;6985569;28;20283;-80
2023/03/09 01:59:33;;;;;;;1.00;1.00;;;;;;;14.55;55.41;96500.97;6988207;28;20311;-80
2023/03/09 02:02:58;;;;;;;1.63;1.07;;;;;;;14.36;56.38;96522.59;6992590;28;20278;-81
2023/03/09 02:06:20;;;;;;;1.37;1.23;;;;;;;14.62;55.41;96518.53;6996016;28;20227;-80
2023/03/09 02:09:47;;;;;;;0.90;0.87;;;;;;;14.68;56.02;96530.94;6996176;28;20224;-81
2023/03/09 02:13:10;;;;;;;1.03;1.03;;;;;;;14.82;54.76;96510.19;6996357;28;20194;-80
2023/03/09 02:16:32;;;;;;;1.40;0.90;;;;;;;14.91;54.71;96513.06;6997957;28;20237;-81
2023/03/09 02:20:10;;;;;;;0.90;0.90;;;;;;;14.20;55.30;96512.94;6998584;28;20240;-81
2023/03/09 02:23:36;;;;;;;1.00;1.00;;;;;;;14.60;54.50;96515.31;6993015;28;20287;-81
2023/03/09 02:27:01;;;;;;;1.10;1.10;;;;;;;14.49;54.91;96493.97;6975752;28;20261;-81
2023/03/09 02:30:25;;;;;;;0.90;0.90;;;;;;;14.46;55.23;96518.97;6975311;28;20239;-81
2023/03/09 02:33:47;;;;;;;1.20;1.20;;;;;;;14.20;54.99;96504.00;6975772;28;20291;-80
2023/03/09 02:37:29;;;;;;;0.90;0.90;;;;;;;14.71;53.86;96494.31;6975747;28;20749;-81
2023/03/09 02:40:51;;;;;;;1.00;1.00;;;;;;;14.64;53.85;96508.19;6999376;28;20239;-82
2023/03/09 02:44:13;;;;;;;1.37;1.00;;;;;;;14.97;53.20;96506.50;7013059;28;20293;-81
2023/03/09 02:47:38;;;;;;;1.00;1.00;;;;;;;14.50;53.98;96501.00;7011112;28;20212;-80
2023/03/09 02:51:00;;;;;;;1.30;1.20;;;;;;;14.95;52.51;96492.44;7009871;28;20764;-80
2023/03/09 02:54:21;;;;;;;0.90;0.90;;;;;;;14.74;53.22;96489.13;7009239;28;20213;-81
2023/03/09 02:57:43;;;;;;;1.30;1.20;;;;;;;14.78;53.48;96511.06;7008370;28;20245;-81
2023/03/09 03:01:05;;;;;;;0.90;0.90;;;;;;;14.75;53.60;96489.94;7008019;28;20325;-80
2023/03/09 03:04:28;;;;;;;1.40;0.87;;;;;;;14.37;53.86;96507.94;7007715;28;20241;-81
2023/03/09 03:07:49;;;;;;;1.47;1.00;;;;;;;14.84;53.51;96507.19;7007146;28;20716;-81
2023/03/09 03:11:11;;;;;;;0.90;0.90;;;;;;;14.92;53.34;96529.06;7007444;28;20247;-81
2023/03/09 03:14:32;;;;;;;1.80;1.00;;;;;;;14.74;53.65;96542.56;7007750;28;20741;-81
2023/03/09 03:17:54;;;;;;;2.03;1.03;;;;;;;15.25;52.39;96541.75;7006737;28;20298;-81
2023/03/09 03:21:18;;;;;;;1.00;1.00;;;;;;;14.88;53.98;96568.75;7013025;28;20237;-82
2023/03/09 03:24:40;;;;;;;1.13;1.10;;;;;;;14.28;56.18;96580.09;7018024;28;20210;-80
2023/03/09 03:28:02;;;;;;;1.60;1.10;;;;;;;14.45;56.83;96604.91;7010360;28;20208;-81
2023/03/09 03:31:23;;;;;;;1.17;1.07;;;;;;;14.24;57.38;96600.72;7010237;28;20301;-81
2023/03/09 03:34:45;;;;;;;1.30;1.20;;;;;;;13.83;59.02;96595.78;7011791;28;20730;-81
2023/03/09 03:38:08;;;;;;;1.43;1.10;;;;;;;14.35;57.78;96651.06;7021257;28;20237;-80
2023/03/09 03:41:29;;;;;;;1.50;1.30;;;;;;;14.27;58.91;96669.81;7009891;28;20331;-80
2023/03/09 03:44:50;;;;;;;1.53;1.10;;;;;;;13.76;59.74;96677.31;7008517;28;20274;-81
2023/03/09 03:48:12;;;;;;;1.13;1.00;;;;;;;13.58;59.76;96669.81;7007685;28;20314;-80
2023/03/09 03:51:33;;;;;;;2.13;1.37;;;;;;;13.99;58.58;96695.66;7008345;28;20371;-80
2023/03/09 03:54:56;;;;;;;1.13;1.03;;;;;;;13.81;58.89;96690.06;7007976;28;20328;-80
2023/03/09 03:58:18;;;;;;;1.00;1.00;;;;;;;13.92;58.40;96691.66;7006857;28;20206;-80
2023/03/09 04:01:39;;;;;;;1.80;1.10;;;;;;;13.59;57.35;96679.56;7006604;28;20659;-80
2023/03/09 04:05:01;;;;;;;1.13;1.13;;;;;;;13.93;57.31;96699.47;7007323;28;20191;-80
2023/03/09 04:08:23;;;;;;;2.37;1.17;;;;;;;14.09;56.36;96720.00;7007095;28;20278;-81
2023/03/09 04:11:46;;;;;;;2.40;1.20;;;;;;;13.78;56.36;96698.72;7007303;28;20270;-81
2023/03/09 04:15:08;;;;;;;2.47;1.53;;;;;;;13.93;56.32;96720.34;7006887;28;20212;-80
2023/03/09 04:18:29;;;;;;;1.50;1.20;;;;;;;13.51;57.55;96744.28;7006883;28;20292;-81
2023/03/09 04:21:51;;;;;;;1.73;1.43;;;;;;;13.58;57.24;96752.94;7006929;28;20449;-81
2023/03/09 04:25:12;;;;;;;1.90;1.40;;;;;;;13.67;56.29;96710.66;7007103;28;20345;-81
2023/03/09 04:28:35;;;;;;;2.77;1.40;;;;;;;13.84;56.99;96749.06;7011985;28;20783;-81
2023/03/09 04:31:57;;;;;;;1.63;1.50;;;;;;;13.89;56.98;96787.00;7012242;28;20229;-81
2023/03/09 04:35:19;;;;;;;6.80;2.00;;;;;;;13.75;57.37;96796.78;7011291;28;20381;-81
2023/03/09 04:38:40;;;;;;;6.30;2.17;;;;;;;14.03;56.56;96805.09;7012010;28;20273;-81
2023/03/09 04:42:02;;;;;;;3.97;2.00;;;;;;;13.82;56.93;96817.09;6990170;28;20576;-81
2023/03/09 04:45:25;;;;;;;4.83;2.00;;;;;;;13.76;56.79;96837.09;6983338;28;20225;-81
2023/03/09 04:48:47;;;;;;;7.23;2.20;;;;;;;13.90;56.17;96853.63;6982383;28;20280;-81
2023/03/09 04:52:08;;;;;;;3.77;1.90;;;;;;;13.89;56.01;96852.00;6983607;28;20207;-82
2023/03/09 04:55:30;;;;;;;6.00;2.10;;;;;;;13.85;56.21;96851.72;6983513;28;20290;-81
2023/03/09 04:58:51;;;;;;;4.57;2.70;;;;;;;13.67;56.15;96865.84;6983151;28;20250;-81
2023/03/09 05:02:14;;;;;;;4.40;2.07;;;;;;;13.41;56.31;96836.31;6982036;28;20227;-80
2023/03/09 05:05:36;;;;;;;6.17;2.07;;;;;;;14.03;55.29;96870.13;6982189;28;20221;-81
2023/03/09 05:08:58;;;;;;;7.80;2.63;;;;;;;13.75;55.01;96888.84;6981618;28;20313;-81
2023/03/09 05:12:19;;;;;;;4.13;2.40;;;;;;;13.94;54.77;96907.00;6982964;28;20208;-81
2023/03/09 05:15:41;;;;;;;6.90;2.67;;;;;;;14.33;53.26;96891.78;6982285;28;20757;-81
2023/03/09 05:19:04;;;;;;;6.97;2.30;;;;;;;14.03;53.69;96904.53;6982236;28;20318;-81
2023/03/09 05:22:25;;;;;;;8.43;2.50;;;;;;;14.25;53.08;96932.19;6981541;28;20322;-81
2023/03/09 05:25:56;;;;;;;5.30;2.10;;;;;;;14.06;53.23;96933.81;6981428;28;20639;-81
2023/03/09 05:29:17;;;;;;;5.33;2.30;;;;;;;14.20;53.24;96929.47;6981781;28;20722;-81
2023/03/09 05:32:39;;;;;;;6.40;2.23;;;;;;;14.38;52.43;96942.44;6980441;28;20301;-81
2023/03/09 05:36:02;;;;;;;6.20;2.57;;;;;;;13.92;53.33;96952.50;6979924;28;20301;-81
2023/03/09 05:39:23;;;;;;;5.00;2.27;;;;;;;14.01;53.20;96956.31;6979733;28;20317;-81
2023/03/09 05:42:45;;;;;;;6.37;2.67;;;;;;;14.48;52.27;96958.72;6979731;28;20227;-81
2023/03/09 05:46:06;;;;;;;5.80;2.13;;;;;;;14.29;52.33;96979.34;6985848;28;20366;-80
2023/03/09 05:49:30;;;;;;;5.87;2.80;;;;;;;14.39;52.94;96982.84;6991046;28;20663;-80
2023/03/09 05:52:53;;;;;;;5.73;2.40;;;;;;;14.20;52.77;96991.81;6982138;28;20208;-80
2023/03/09 05:56:14;;;;;;;4.80;2.30;;;;;;;14.27;52.48;96981.53;6980248;28;20343;-81
2023/03/09 05:59:36;;;;;;;8.67;3.00;;;;;;;14.63;52.04;97008.31;6981268;28;20293;-81
2023/03/09 06:02:57;;;;;;;10.10;2.53;;;;;;;14.43;52.41;97008.34;6979068;28;20230;-81
2023/03/09 06:06:19;;;;;;;7.80;2.57;;;;;;;14.73;51.80;97021.84;6979570;28;20328;-81
2023/03/09 06:09:43;;;;;;;6.77;2.60;;;;;;;14.58;51.83;97015.66;6979406;28;20310;-82
2023/03/09 06:13:05;;;;;;;5.90;2.80;;;;;;;14.51;52.17;96996.13;6978590;28;20202;-83
2023/03/09 06:16:26;;;;;;;4.07;2.53;;;;;;;15.12;50.83;97017.41;6978142;28;20631;-82
2023/03/09 06:19:48;;;;;;;6.87;2.80;;;;;;;14.98;51.17;97029.13;7000087;28;20223;-81
2023/03/09 06:23:09;;;;;;;8.23;2.37;;;;;;;14.89;51.45;97011.78;6992171;28;20285;-80
2023/03/09 06:26:32;;;;;;;17.77;3.53;;;;;;;14.94;51.29;97020.72;6992576;28;20271;-80
2023/03/09 06:29:54;;;;;;;6.47;2.83;;;;;;;14.92;51.15;97017.47;6976878;28;20224;-80
2023/03/09 06:33:16;;;;;;;6.57;2.40;;;;;;;14.94;51.03;97020.72;6988319;28;20197;-80
2023/03/09 06:36:37;;;;;;;9.63;3.50;;;;;;;15.02;50.49;97013.91;6996948;28;20274;-79
2023/03/09 06:39:59;;;;;;;10.87;4.97;;;;;;;14.82;51.24;97014.75;6999956;28;20758;-81
2023/03/09 06:43:22;;;;;;;4.90;2.43;;;;;;;14.81;51.15;97024.00;6992367;28;20603;-81
2023/03/09 06:46:44;;;;;;;9.13;3.33;;;;;;;15.18;50.36;97018.19;7006928;28;20227;-81
2023/03/09 06:50:06;;;;;;;7.77;2.67;;;;;;;15.08;49.76;97015.50;7003879;28;20233;-82
2023/03/09 06:53:27;;;;;;;10.00;2.50;;;;;;;14.79;49.53;96971.09;6998736;28;20203;-79
2023/03/09 06:56:49;;;;;;;4.17;2.37;;;;;;;15.18;49.88;97023.63;6990006;28;20298;-80
2023/03/09 07:00:13;;;;;;;6.73;2.27;;;;;;;15.32;49.86;97028.22;7000048;28;20232;-81
2023/03/09 07:03:35;;;;;;;2.93;2.27;;;;;;;14.95;50.19;97035.91;6978974;28;20681;-79
2023/03/09 07:06:57;;;;;;;5.33;2.23;;;;;;;14.88;51.00;97050.84;6993890;28;20206;-81
2023/03/09 07:10:18;;;;;;;9.00;3.13;;;;;;;15.10;50.60;97052.16;6994907;28;20313;-79
2023/03/09 07:13:40;;;;;;;5.13;2.70;;;;;;;14.88;51.09;97062.53;6970381;28;20297;-78
2023/03/09 07:17:03;;;;;;;5.43;2.90;;;;;;;15.15;50.94;97059.47;6968780;28;20296;-79
2023/03/09 07:20:24;;;;;;;9.13;2.67;;;;;;;15.29;50.13;97072.16;6970576;28;20361;-79
2023/03/09 07:23:46;;;;;;;5.50;2.60;;;;;;;15.34;50.27;97022.50;6973154;28;20246;-78
2023/03/09 07:27:08;;;;;;;7.60;2.63;;;;;;;16.18;49.41;97074.75;6979381;28;20201;-80
2023/03/09 07:30:30;;;;;;;3.93;2.37;;;;;;;16.85;47.00;97080.22;6981354;28;20254;-80
2023/03/09 07:33:52;;;;;;;7.20;2.33;;;;;;;16.75;47.34;97086.56;6990873;28;20206;-79
2023/03/09 07:37:14;;;;;;;8.03;2.83;;;;;;;16.10;49.42;97073.44;6995938;28;20212;-78
2023/03/09 07:40:36;;;;;;;3.67;2.40;;;;;;;15.21;50.35;97080.91;6996167;28;20232;-78
2023/03/09 07:43:58;;;;;;;6.87;2.50;;;;;;;16.06;48.59;97099.59;6996581;28;20591;-79
2023/03/09 07:47:19;;;;;;;4.17;2.30;;;;;;;17.06;46.85;97109.72;6995466;28;20214;-79
2023/03/09 07:50:42;;;;;;;8.60;2.50;;;;;;;16.95;46.96;97101.91;6996928;28;20759;-79
2023/03/09 07:54:05;;;;;;;4.10;1.87;;;;;;;16.49;47.21;97116.97;6998433;28;20209;-78
2023/03/09 07:57:31;;;;;;;4.77;2.20;;;;;;;16.73;46.94;97120.59;7010520;28;20684;-78
2023/03/09 08:00:52;;;;;;;5.67;2.47;;;;;;;16.38;47.03;97129.00;6982335;28;20236;-79
2023/03/09 08:04:16;;;;;;;4.70;2.17;;;;;;;15.42;48.42;97133.28;6971000;28;20699;-80
2023/03/09 08:07:42;;;;;;;7.47;2.87;;;;;;;15.88;48.56;97135.56;6978866;28;20202;-79
2023/03/09 08:11:04;;;;;;;3.77;1.90;;;;;;;15.67;48.24;97138.59;6984843;28;20229;-77
2023/03/09 08:14:26;;;;;;;5.97;2.17;;;;;;;15.92;47.60;97152.91;6997156;28;20269;-79
2023/03/09 08:17:47;;;;;;;4.77;2.20;;;;;;;15.96;47.69;97156.72;6995756;28;20749;-78
2023/03/09 08:21:11;;;;;;;6.33;1.97;;;;;;;15.94;47.68;97160.78;6996459;28;20266;-79
2023/03/09 08:24:34;;;;;;;5.10;2.20;;;;;;;15.94;47.10;97168.94;6989119;28;20397;-79
2023/03/09 08:27:56;;;;;;;5.60;2.57;;;;;;;15.99;46.54;97163.50;6995324;28;20265;-79
2023/03/09 08:31:18;;;;;;;6.70;2.50;;;;;;;16.18;46.41;97178.06;6996070;28;20281;-79
2023/03/09 08:34:39;;;;;;;7.30;2.13;;;;;;;16.24;45.55;97185.13;6989824;28;20237;-80
2023/03/09 08:38:01;;;;;;;4.13;2.43;;;;;;;16.19;46.39;97182.41;6993896;28;20209;-79
2023/03/09 08:41:24;;;;;;;3.63;1.90;;;;;;;16.79;44.97;97188.31;6995739;28;20225;-79
2023/03/09 08:44:45;;;;;;;2.90;1.70;;;;;;;16.18;46.03;97205.25;6995432;28;20278;-80
2023/03/09 08:48:07;;;;;;;6.13;2.23;;;;;;;16.03;45.85;97169.97;6995230;28;20267;-79
2023/03/09 08:51:29;;;;;;;5.57;2.00;;;;;;;15.44;47.65;97212.56;6995750;28;20236;-81
2023/03/09 08:54:50;;;;;;;2.53;1.67;;;;;;;15.67;47.87;97230.97;6995637;28;20258;-79
2023/03/09 08:58:13;;;;;;;6.80;1.80;;;;;;;15.33;48.01;97233.50;6995087;28;20237;-79
2023/03/09 09:01:35;;;;;;;3.23;2.00;;;;;;;15.77;47.30;97239.13;6994190;28;20223;-79
2023/03/09 09:04:56;;;;;;;3.83;2.17;;;;;;;15.93;47.24;97252.38;6985849;28;20269;-79
2023/03/09 09:08:19;;;;;;;4.13;1.73;;;;;;;16.02;47.34;97247.19;6967185;28;20213;-81
2023/03/09 09:11:40;;;;;;;4.03;1.97;;;;;;;15.82;47.50;97239.91;6968639;28;20232;-79
2023/03/09 09:15:04;;;;;;;3.43;1.57;;;;;;;15.99;46.42;97251.28;6972988;28;20274;-79
2023/03/09 09:31:57;;;;;;;4.33;2.00;;;;;;;15.28;51.74;97330.41;7162425;27;20578;-75
2023/03/09 09:35:19;;;;;;;1.83;1.63;;;;;;;15.06;52.97;97310.81;7149479;27;20689;-75
2023/03/09 09:38:41;;;;;;;3.93;2.33;;;;;;;15.50;51.66;97271.22;7103911;27;20229;-75
2023/03/09 09:42:06;;;;;;;3.73;2.10;;;;;;;15.13;52.48;97206.34;7104573;27;20213;-75
2023/03/09 09:45:32;;;;;;;3.53;1.90;;;;;;;16.05;51.20;97299.09;7104915;27;20214;-75
2023/03/09 09:48:55;;;;;;;1.90;1.80;;;;;;;16.09;51.33;97283.03;7104700;27;20211;-75
2023/03/09 09:52:23;;;;;;;4.70;2.00;;;;;;;15.13;51.85;97322.22;7104590;27;20682;-75
2023/03/09 09:55:45;;;;;;;7.13;5.90;;;;;;;15.83;50.56;97297.81;7103963;27;20208;-76
2023/03/09 09:59:08;;;;;;;2.20;1.80;;;;;;;14.86;50.46;97224.78;7104820;27;20254;-73
2023/03/09 10:02:45;;;;;;;3.67;2.13;;;;;;;16.28;49.82;97331.13;7104188;27;20351;-74
2023/03/09 10:06:12;;;;;;;2.10;1.60;;;;;;;15.61;50.26;97300.00;7104192;27;20208;-75
2023/03/09 10:09:35;;;;;;;3.53;1.90;;;;;;;15.79;50.15;97337.47;7104087;27;20204;-76
2023/03/09 10:12:58;;;;;;;3.17;2.10;;;;;;;15.45;50.45;97304.63;7104052;27;20220;-75
2023/03/09 10:16:24;;;;;;;2.90;1.80;;;;;;;15.17;51.25;97304.31;7104065;27;20220;-75
2023/03/09 10:19:47;;;;;;;2.53;1.70;;;;;;;15.51;51.22;97349.72;7103555;27;20567;-76
2023/03/09 10:23:18;;;;;;;3.30;2.20;;;;;;;15.58;50.48;97333.94;7103483;27;20218;-75
2023/03/09 10:26:42;;;;;;;2.97;1.80;;;;;;;16.29;48.65;97337.38;7103778;27;20205;-74
2023/03/09 10:30:08;;;;;;;4.53;1.90;;;;;;;16.11;50.27;97316.22;7100642;27;20226;-75
2023/03/09 10:33:37;;;;;;;3.27;1.80;;;;;;;15.43;49.34;97230.78;7048298;27;20214;-75
2023/03/09 10:37:00;;;;;;;2.00;1.80;;;;;;;15.88;49.91;97335.84;7084479;27;20198;-76
2023/03/09 10:40:26;;;;;;;2.07;1.63;;;;;;;16.43;48.14;97358.31;7084130;27;20244;-78
2023/03/09 10:43:48;;;;;;;4.80;3.30;;;;;;;16.22;49.33;97364.06;7084432;27;20556;-76
2023/03/09 10:47:10;;;;;;;4.70;1.83;;;;;;;16.64;48.59;97348.19;7084049;27;20203;-76
2023/03/09 10:50:33;;;;;;;4.23;1.50;;;;;;;17.28;46.82;97357.09;7083300;27;20210;-75
2023/03/09 10:53:56;;;;;;;4.47;1.53;;;;;;;16.86;45.68;97253.34;7083469;27;20212;-79
2023/03/09 10:57:27;;;;;;;2.90;1.57;;;;;;;17.42;45.00;97314.50;7084011;27;20691;-77
2023/03/09 11:00:51;;;;;;;4.63;2.27;;;;;;;17.00;45.53;97322.41;7083598;27;20224;-78
2023/03/09 11:04:43;;;;;;;5.53;2.13;;;;;;;18.40;43.22;97324.75;7083521;27;20208;-77
2023/03/09 11:08:07;;;;;;;4.53;2.27;;;;;;;18.44;42.50;97342.19;7016161;27;20224;-77
2023/03/09 11:11:29;;;;;;;3.43;1.77;;;;;;;18.66;42.06;97317.06;7083322;27;20306;-77
2023/03/09 11:14:53;;;;;;;4.77;2.00;;;;;;;18.21;41.57;97293.03;7083362;27;20263;-76
2023/03/09 11:18:28;;;;;;;5.47;2.23;;;;;;;18.04;41.78;97328.94;7083909;27;20244;-81
2023/03/09 11:22:00;;;;;;;3.67;1.70;;;;;;;18.26;41.16;97269.22;7083082;27;20722;-76
2023/03/09 11:25:29;;;;;;;2.20;1.70;;;;;;;18.77;40.17;97318.56;7083292;27;20570;-79
2023/03/09 11:28:57;;;;;;;3.10;1.80;;;;;;;18.79;40.49;97308.97;7083342;27;20258;-77
2023/03/09 11:32:20;;;;;;;4.73;2.10;;;;;;;18.69;39.96;97332.88;7082726;27;20214;-77
2023/03/09 11:35:42;;;;;;;3.67;1.73;;;;;;;19.21;39.70;97319.09;7083200;27;20208;-76
2023/03/09 11:39:05;;;;;;;5.17;2.60;;;;;;;18.80;39.82;97324.25;7082835;27;20323;-76
2023/03/09 11:42:33;;;;;;;4.53;2.37;;;;;;;18.47;40.34;97319.78;7081478;27;20250;-76
2023/03/09 11:45:58;;;;;;;4.83;2.03;;;;;;;18.69;39.27;97300.13;7082616;27;20231;-76
2023/03/09 11:49:25;;;;;;;4.87;2.17;;;;;;;18.35;39.14;97270.22;7082540;27;20211;-76
2023/03/09 11:52:51;;;;;;;4.73;1.83;;;;;;;18.74;39.70;97310.97;7082281;27;20313;-78
2023/03/09 11:56:19;;;;;;;4.83;1.93;;;;;;;18.65;39.60;97282.69;7082017;27;20203;-76
2023/03/09 11:59:45;;;;;;;3.63;1.77;;;;;;;18.70;39.55;97309.94;7107728;27;20680;-76
2023/03/09 12:03:11;;;;;;;5.20;2.10;;;;;;;18.45;39.24;97323.91;7109748;27;20324;-76
2023/03/09 12:06:40;;;;;;;4.27;1.93;;;;;;;18.55;39.24;97327.31;7106719;27;20199;-76
2023/03/09 12:10:06;;;;;;;5.20;2.10;;;;;;;17.69;39.55;97203.88;7081541;27;20199;-76
2023/03/09 12:13:30;;;;;;;2.73;1.93;;;;;;;18.12;39.98;97309.22;7081489;27;20244;-75
2023/03/09 12:16:54;;;;;;;3.90;2.50;;;;;;;18.51;39.13;97304.44;7081497;27;20264;-74
2023/03/09 12:20:21;;;;;;;3.00;1.60;;;;;;;18.22;39.56;97338.31;7082120;27;20704;-76
2023/03/09 12:23:54;;;;;;;3.70;1.87;;;;;;;18.14;40.19;97347.94;7108760;27;20730;-75
2023/03/09 12:27:17;;;;;;;5.77;1.70;;;;;;;18.52;40.37;97340.72;7088783;27;20199;-75
2023/03/09 12:30:51;;;;;;;3.07;1.77;;;;;;;18.96;38.95;97309.31;7081185;27;20215;-75
2023/03/09 12:34:27;;;;;;;5.97;1.97;;;;;;;17.99;39.27;97172.75;7081455;27;20227;-75
2023/03/09 12:37:56;;;;;;;2.93;1.70;;;;;;;18.59;38.79;97341.19;7081310;27;20203;-75
2023/03/09 12:41:28;;;;;;;4.00;1.90;;;;;;;18.72;39.66;97333.09;7080933;27;20226;-75
2023/03/09 12:44:59;;;;;;;4.13;2.60;;;;;;;18.64;39.24;97300.97;7080746;27;20199;-75
2023/03/09 12:48:24;;;;;;;2.87;1.63;;;;;;;19.04;39.12;97288.72;7081063;27;20199;-75
2023/03/09 12:51:47;;;;;;;3.73;2.63;;;;;;;19.14;38.55;97332.25;7080591;27;20201;-76
2023/03/09 12:55:16;;;;;;;4.43;3.17;;;;;;;19.06;38.54;97309.16;7080559;27;20245;-75
2023/03/09 12:58:44;;;;;;;4.93;3.43;;;;;;;17.86;39.81;97215.16;7080794;27;20230;-75
2023/03/09 13:02:28;;;;;;;4.90;3.23;;;;;;;18.90;38.39;97299.56;7080437;27;20339;-75
2023/03/09 13:05:50;;;;;;;5.30;2.50;;;;;;;18.65;38.70;97258.13;7075093;27;20204;-75
2023/03/09 13:09:20;;;;;;;5.60;1.90;;;;;;;19.04;38.55;97329.69;7094448;27;20214;-75
2023/03/09 13:12:42;;;;;;;3.63;2.00;;;;;;;18.44;38.46;97260.31;7102798;27;20209;-75
2023/03/09 13:16:47;;;;;;;3.20;1.77;;;;;;;18.03;39.62;97330.03;7106164;27;20574;-77
2023/03/09 13:20:18;;;;;;;3.83;2.20;;;;;;;17.70;39.46;97311.81;7105458;27;20697;-75
2023/03/09 13:23:40;;;;;;;5.23;2.07;;;;;;;17.58;39.94;97286.84;7102896;27;20317;-75
2023/03/09 13:27:05;;;;;;;2.93;2.00;;;;;;;17.70;39.68;97270.91;7087843;27;20200;-75
2023/03/09 13:30:27;;;;;;;4.50;1.97;;;;;;;17.57;39.64;97273.53;7090636;27;20216;-75
2023/03/09 13:33:49;;;;;;;2.70;1.83;;;;;;;17.25;40.24;97295.00;7085390;27;20244;-75
2023/03/09 13:37:17;;;;;;;5.00;1.90;;;;;;;17.73;40.63;97303.06;7089953;27;20200;-75
2023/03/09 13:40:48;;;;;;;4.80;2.10;;;;;;;17.56;40.94;97329.91;7099437;27;20731;-75
2023/03/09 13:44:15;;;;;;;3.63;2.37;;;;;;;18.06;40.19;97304.09;7083710;27;20204;-75
2023/03/09 13:47:36;;;;;;;4.27;2.13;;;;;;;18.50;40.18;97315.63;7137478;27;20675;-75
2023/03/09 13:50:58;;;;;;;5.10;2.00;;;;;;;18.58;39.43;97334.09;7104648;27;20207;-75
2023/03/09 13:54:30;;;;;;;5.83;2.33;;;;;;;18.15;40.30;97313.25;7079999;28;20665;-75
2023/03/09 13:57:54;;;;;;;4.83;2.10;;;;;;;18.51;39.45;97314.56;7080782;27;20207;-75
2023/03/09 14:01:21;;;;;;;4.07;1.80;;;;;;;17.61;41.44;97301.81;7079466;28;20220;-75
2023/03/09 14:04:47;;;;;;;6.30;2.20;;;;;;;17.92;41.08;97295.00;7080305;27;20203;-75
2023/03/09 14:08:17;;;;;;;3.93;2.00;;;;;;;17.61;43.13;97323.59;7085100;27;20681;-75
2023/03/09 14:11:40;;;;;;;4.70;2.03;;;;;;;17.16;45.94;97340.28;7082988;27;20199;-74
2023/03/09 14:15:04;;;;;;;9.47;2.20;;;;;;;16.56;47.75;97245.34;7084114;27;20212;-75
2023/03/09 14:18:29;;;;;;;5.93;2.13;;;;;;;16.60;49.30;97330.78;7085174;27;20634;-74
2023/03/09 14:21:51;;;;;;;5.13;2.20;;;;;;;17.14;47.84;97323.38;7099837;27;20263;-74
2023/03/09 14:25:30;;;;;;;2.50;1.70;;;;;;;17.53;46.11;97333.22;7112451;27;20214;-75
2023/03/09 14:29:02;;;;;;;3.60;1.70;;;;;;;18.03;44.28;97310.94;7112905;27;20210;-75
2023/03/09 14:32:28;;;;;;;4.47;1.90;;;;;;;17.91;44.58;97317.88;7112336;27;20214;-74
2023/03/09 14:35:50;;;;;;;4.00;1.93;;;;;;;17.78;43.85;97299.47;7112232;27;20203;-75
2023/03/09 14:39:23;;;;;;;4.10;2.17;;;;;;;18.25;42.59;97308.53;7113092;27;20210;-74
2023/03/09 14:42:44;;;;;;;4.87;1.83;;;;;;;17.92;44.47;97287.59;7112774;27;20307;-75
2023/03/09 14:46:11;;;;;;;3.70;1.80;;;;;;;18.04;43.09;97292.69;7112543;27;20215;-75
2023/03/09 14:49:33;;;;;;;3.60;1.90;;;;;;;17.73;43.05;97217.75;7112598;27;20203;-75
2023/03/09 14:52:55;;;;;;;5.77;2.23;;;;;;;17.85;42.22;97242.69;7084259;27;20218;-75
2023/03/09 14:56:16;;;;;;;4.30;1.83;;;;;;;17.68;41.49;97176.94;7102393;27;20218;-75
2023/03/09 14:59:38;;;;;;;4.23;2.10;;;;;;;18.22;41.39;97251.00;7108740;27;20578;-77
2023/03/09 15:03:03;;;;;;;6.63;1.80;;;;;;;18.11;42.37;97298.59;7141117;27;20234;-75
2023/03/09 15:06:25;;;;;;;2.77;1.57;;;;;;;18.55;41.02;97286.38;7118128;27;20212;-78
2023/03/09 15:09:46;;;;;;;4.50;1.73;;;;;;;18.27;40.97;97268.13;7083003;27;20210;-75
2023/03/09 15:13:09;;;;;;;2.00;1.80;;;;;;;18.13;41.60;97288.19;7083397;27;20204;-75
2023/03/09 15:16:31;;;;;;;4.97;1.80;;;;;;;18.03;41.35;97277.41;7083320;27;20688;-75
2023/03/09 15:19:54;;;;;;;4.80;2.10;;;;;;;18.32;41.46;97264.53;7082742;27;20219;-75
2023/03/09 15:23:16;;;;;;;3.13;2.10;;;;;;;18.31;40.97;97282.84;7083869;27;20223;-79
2023/03/09 15:26:37;;;;;;;11.73;2.33;;;;;;;18.04;41.21;97277.13;7111154;27;20609;-76
2023/03/09 15:29:59;;;;;;;4.57;2.40;;;;;;;17.87;41.84;97249.47;7110073;27;20252;-76
2023/03/09 15:33:21;;;;;;;5.60;2.27;;;;;;;18.64;40.61;97273.69;7111214;27;20670;-76
2023/03/09 15:36:44;;;;;;;1.90;1.67;;;;;;;18.16;40.74;97279.47;7111192;27;20693;-76
2023/03/09 15:40:08;;;;;;;2.47;1.73;;;;;;;17.20;43.09;97265.06;7110925;27;20230;-76
2023/03/09 15:43:29;;;;;;;9.67;2.07;;;;;;;17.62;41.93;97266.09;7111731;27;20211;-76
2023/03/09 15:46:51;;;;;;;2.27;1.80;;;;;;;17.78;41.33;97273.03;7110945;27;20542;-76
2023/03/09 15:50:13;;;;;;;3.33;2.00;;;;;;;17.71;40.91;97204.41;7111066;27;20331;-76
2023/03/09 15:53:36;;;;;;;4.67;2.10;;;;;;;17.89;41.81;97273.75;7111365;27;20225;-76
2023/03/09 15:56:58;;;;;;;4.90;2.10;;;;;;;17.63;42.14;97277.81;7110165;27;20199;-76
2023/03/09 16:00:20;;;;;;;6.13;2.30;;;;;;;17.95;41.49;97276.13;7110490;27;20227;-76
2023/03/09 16:03:42;;;;;;;5.93;2.30;;;;;;;17.07;42.20;97198.47;7111079;27;20203;-75
2023/03/09 16:07:04;;;;;;;6.13;2.73;;;;;;;17.06;42.47;97221.34;7109630;27;20763;-75
2023/03/09 16:10:27;;;;;;;4.20;2.07;;;;;;;17.68;41.57;97237.69;7094409;27;20272;-75
2023/03/09 16:13:48;;;;;;;6.80;2.50;;;;;;;17.08;42.09;97215.59;7110506;27;20572;-75